Time;durP1;ratioP1;P1;durP2;ratioP2;P2;SDS_P1;SDS_P2;PMS_P1;PMS_P2;Temp;Humidity;BMP_temperature;BMP_pressure;BME280_temperature;BME280_humidity;BME280_pressure;Samples;Min_cycle;Max_cycle;Signal;HPM_P1;HPM_P2
2022/04/26 03:36:56;;;;;;;17.13;9.35;;;4.50;99.90;;;;;;5033545;28;20477;-90
2022/04/26 03:39:25;;;;;;;13.57;8.98;;;4.70;99.90;;;;;;5017672;28;20022;-91
2022/04/26 03:41:53;;;;;;;;;;;4.50;99.90;;;;;;5018464;28;20043;-92
2022/04/26 03:44:21;;;;;;;15.93;8.88;;;4.20;99.90;;;;;;5017902;28;19917;-92
2022/04/26 03:46:47;;;;;;;13.98;9.95;;;4.10;99.90;;;;;;5017490;28;20026;-91
2022/04/26 03:49:12;;;;;;;13.38;9.32;;;4.10;99.90;;;;;;5017259;28;20396;-92
2022/04/26 03:51:38;;;;;;;11.63;8.32;;;4.20;99.90;;;;;;5018133;28;20072;-91
2022/04/26 03:54:04;;;;;;;15.23;9.13;;;4.40;99.90;;;;;;5017195;28;20033;-93
2022/04/26 03:56:30;;;;;;;13.40;8.82;;;4.50;99.90;;;;;;5017293;28;20524;-92
2022/04/26 03:58:57;;;;;;;13.85;9.18;;;4.50;99.90;;;;;;5019128;28;20076;-92
2022/04/26 04:01:23;;;;;;;13.47;9.30;;;4.60;99.90;;;;;;5018915;28;20017;-90
2022/04/26 04:03:49;;;;;;;14.20;9.38;;;4.60;99.90;;;;;;5015617;28;20401;-90
2022/04/26 04:06:15;;;;;;;14.80;9.25;;;4.60;99.90;;;;;;5015335;28;20078;-90
2022/04/26 04:08:40;;;;;;;14.13;9.65;;;4.80;99.90;;;;;;5017077;28;20022;-90
2022/04/26 04:11:06;;;;;;;15.70;9.68;;;4.80;99.90;;;;;;5015147;28;20033;-92
2022/04/26 04:13:32;;;;;;;13.65;9.98;;;;;;;;;;5032974;28;20053;-91
2022/04/26 04:15:58;;;;;;;13.43;9.93;;;4.70;99.90;;;;;;5013827;28;20025;-87
2022/04/26 04:21:08;;;;;;;14.45;9.65;;;4.80;99.90;;;;;;5032040;28;20128;-87
2022/04/26 04:23:38;;;;;;;19.02;10.73;;;4.70;99.90;;;;;;5030984;28;20132;-88
2022/04/26 04:26:04;;;;;;;18.15;11.43;;;4.70;99.90;;;;;;5030499;28;20027;-87
2022/04/26 04:28:35;;;;;;;19.80;11.82;;;4.70;99.90;;;;;;5012808;28;20029;-86
2022/04/26 04:31:01;;;;;;;19.67;11.70;;;4.60;99.90;;;;;;5030556;28;20071;-87
2022/04/26 04:33:28;;;;;;;24.80;12.25;;;4.60;99.90;;;;;;5029911;28;20040;-88
2022/04/26 04:35:54;;;;;;;17.20;12.18;;;4.60;99.90;;;;;;5029723;28;20466;-87
2022/04/26 04:38:19;;;;;;;17.08;12.25;;;4.70;99.90;;;;;;5029975;28;20030;-88
2022/04/26 04:40:45;;;;;;;17.35;12.50;;;4.70;99.90;;;;;;5012839;28;20057;-87
2022/04/26 04:43:11;;;;;;;22.58;12.85;;;4.80;99.90;;;;;;5031212;28;20367;-88
2022/04/26 04:45:40;;;;;;;19.75;12.73;;;4.70;99.90;;;;;;5030423;28;20568;-89
2022/04/26 04:48:06;;;;;;;22.17;11.98;;;4.70;99.90;;;;;;5030110;28;20021;-88
2022/04/26 04:50:35;;;;;;;25.67;12.73;;;4.80;99.90;;;;;;5030170;28;20033;-88
2022/04/26 04:53:01;;;;;;;18.38;11.73;;;4.90;99.90;;;;;;5030581;28;20545;-88
2022/04/26 04:55:27;;;;;;;18.02;11.95;;;4.80;99.90;;;;;;5030252;28;20029;-88
2022/04/26 04:57:53;;;;;;;21.92;12.45;;;4.80;99.90;;;;;;5020961;28;20024;-89
2022/04/26 05:00:18;;;;;;;21.90;13.23;;;4.70;99.90;;;;;;5022105;28;20040;-87
2022/04/26 05:02:44;;;;;;;21.30;12.88;;;4.60;99.90;;;;;;5021820;28;20064;-87
2022/04/26 05:05:10;;;;;;;17.30;12.10;;;4.50;99.90;;;;;;5030318;28;20171;-88
2022/04/26 05:07:37;;;;;;;17.80;12.80;;;4.50;99.90;;;;;;5019376;28;20021;-87
2022/04/26 05:10:06;;;;;;;21.33;12.82;;;4.50;99.90;;;;;;5003706;28;20405;-87
2022/04/26 05:12:33;;;;;;;19.30;13.60;;;4.60;99.90;;;;;;5023287;28;20017;-87
2022/04/26 05:14:59;;;;;;;16.30;11.98;;;;;;;;;;5019199;28;20153;-87
2022/04/26 05:17:27;;;;;;;22.30;13.43;;;4.60;99.90;;;;;;5022737;28;20037;-87
2022/04/26 05:19:53;;;;;;;22.50;13.65;;;4.60;99.90;;;;;;5018420;28;20398;-87
2022/04/26 05:22:19;;;;;;;20.73;13.30;;;4.60;99.90;;;;;;5019995;28;20029;-87
2022/04/26 05:24:53;;;;;;;25.50;14.30;;;4.60;99.90;;;;;;5019549;28;20037;-84
2022/04/26 05:27:30;;;;;;;24.30;14.30;;;4.60;99.90;;;;;;5020194;28;20017;-88
2022/04/26 05:29:57;;;;;;;22.77;13.70;;;4.60;99.90;;;;;;5029488;28;20026;-88
2022/04/26 05:32:24;;;;;;;21.85;14.43;;;4.70;99.90;;;;;;5028970;28;20092;-88
2022/04/26 05:34:58;;;;;;;24.17;15.32;;;4.80;99.90;;;;;;5023865;28;20026;-90
2022/04/26 05:37:24;;;;;;;22.15;15.02;;;4.90;99.90;;;;;;5021839;28;20025;-94
2022/04/26 05:39:49;;;;;;;23.10;14.23;;;4.90;99.90;;;;;;5016941;28;20431;-89
2022/04/26 05:42:15;;;;;;;23.98;15.38;;;5.00;99.90;;;;;;5022172;28;20104;-88
2022/04/26 05:44:42;;;;;;;31.20;15.25;;;5.00;99.90;;;;;;5028336;28;20124;-88
2022/04/26 05:47:08;;;;;;;25.15;15.07;;;5.10;99.90;;;;;;5028058;28;20103;-88
2022/04/26 05:49:35;;;;;;;27.55;15.68;;;5.20;99.90;;;;;;5027815;28;20099;-90
2022/04/26 05:52:02;;;;;;;22.17;15.05;;;5.20;99.90;;;;;;5028198;28;20010;-89
2022/04/26 05:54:28;;;;;;;22.80;14.80;;;5.30;99.90;;;;;;5027988;28;20021;-86
2022/04/26 05:56:54;;;;;;;26.52;15.27;;;5.50;99.90;;;;;;5028629;28;20029;-88
2022/04/26 05:59:23;;;;;;;22.80;15.15;;;5.50;99.90;;;;;;5029492;28;20032;-89
2022/04/26 06:01:50;;;;;;;23.92;14.13;;;5.60;99.90;;;;;;5029504;28;20096;-85
2022/04/26 06:04:16;;;;;;;21.65;13.82;;;5.70;99.90;;;;;;5029380;28;20040;-88
2022/04/26 06:06:45;;;;;;;27.77;15.32;;;5.80;99.90;;;;;;5030220;28;20092;-90
2022/04/26 06:09:13;;;;;;;;;;;5.90;99.90;;;;;;5031004;28;20116;-84
2022/04/26 06:11:39;;;;;;;;;;;6.00;99.90;;;;;;5029852;28;19905;-90
2022/04/26 06:14:06;;;;;;;26.98;15.25;;;6.10;99.90;;;;;;5029209;28;20223;-87
2022/04/26 06:16:32;;;;;;;26.15;14.05;;;6.30;99.90;;;;;;5029230;28;20028;-90
2022/04/26 06:18:57;;;;;;;27.05;13.70;;;6.40;99.90;;;;;;5029420;28;20025;-87
2022/04/26 06:21:23;;;;;;;27.15;15.90;;;6.50;99.90;;;;;;5011664;28;20071;-90
2022/04/26 06:23:49;;;;;;;25.23;14.52;;;6.70;99.90;;;;;;5011161;28;20041;-88
2022/04/26 06:26:15;;;;;;;30.05;15.73;;;6.80;99.90;;;;;;5029624;28;20026;-89
2022/04/26 06:28:40;;;;;;;22.70;14.38;;;7.00;99.90;;;;;;5028690;28;20114;-87
2022/04/26 06:31:06;;;;;;;24.02;14.52;;;7.10;99.90;;;;;;5028926;28;20253;-87
2022/04/26 06:33:33;;;;;;;22.58;14.68;;;7.30;99.90;;;;;;5011292;28;20026;-86
2022/04/26 06:35:59;;;;;;;23.55;15.20;;;7.30;99.90;;;;;;5028893;28;20041;-88
2022/04/26 06:38:25;;;;;;;21.55;14.75;;;7.60;99.90;;;;;;5028911;28;20025;-88
2022/04/26 06:40:52;;;;;;;27.63;15.00;;;7.50;99.90;;;;;;5028775;28;20080;-86
2022/04/26 06:43:18;;;;;;;24.77;14.68;;;7.70;99.90;;;;;;5028958;28;20038;-87
2022/04/26 06:45:46;;;;;;;23.02;13.63;;;7.70;99.90;;;;;;5029716;28;20025;-88
2022/04/26 06:48:12;;;;;;;24.83;14.80;;;7.70;99.90;;;;;;5011187;28;20029;-87
2022/04/26 06:50:39;;;;;;;18.70;13.40;;;7.90;99.90;;;;;;5028638;28;20087;-87
2022/04/26 06:53:05;;;;;;;27.98;13.68;;;8.00;99.90;;;;;;5010978;28;20021;-87
2022/04/26 06:55:31;;;;;;;24.55;14.23;;;8.00;99.90;;;;;;5028773;28;20092;-87
2022/04/26 06:57:57;;;;;;;21.02;13.77;;;8.10;99.90;;;;;;5028678;28;20466;-88
2022/04/26 07:00:23;;;;;;;18.95;13.32;;;8.10;99.90;;;;;;5030592;28;20096;-87
2022/04/26 07:02:49;;;;;;;26.15;14.07;;;8.10;99.90;;;;;;5014897;28;20024;-87
2022/04/26 07:05:15;;;;;;;26.00;14.65;;;8.20;99.90;;;;;;5033362;28;20033;-88
2022/04/26 07:07:41;;;;;;;24.25;14.13;;;8.30;99.90;;;;;;5014841;28;20033;-89
2022/04/26 07:10:08;;;;;;;22.50;13.98;;;8.40;99.90;;;;;;5014878;28;20060;-87
2022/04/26 07:12:34;;;;;;;26.15;13.65;;;8.40;99.90;;;;;;5032530;28;20033;-88
2022/04/26 07:15:00;;;;;;;23.35;14.30;;;8.60;99.90;;;;;;5032493;28;20580;-88
2022/04/26 07:17:26;;;;;;;23.95;14.15;;;8.60;99.90;;;;;;5014603;28;20116;-87
2022/04/26 07:19:52;;;;;;;19.98;13.63;;;8.70;99.90;;;;;;5014486;28;20018;-87
2022/04/26 07:22:18;;;;;;;22.50;14.27;;;8.80;99.90;;;;;;5033023;28;20501;-88
2022/04/26 07:24:46;;;;;;;24.70;14.90;;;9.00;99.90;;;;;;5032304;28;20033;-88
2022/04/26 07:27:12;;;;;;;23.42;15.68;;;9.10;99.90;;;;;;5032225;28;20029;-88
2022/04/26 07:29:43;;;;;;;24.63;15.43;;;9.20;99.90;;;;;;5014429;28;20366;-88
2022/04/26 07:32:09;;;;;;;25.95;15.60;;;9.30;99.90;;;;;;5032120;28;20026;-87
2022/04/26 07:34:35;;;;;;;24.42;15.23;;;9.40;99.90;;;;;;5032028;28;20025;-88
2022/04/26 07:37:04;;;;;;;24.58;14.80;;;9.30;99.90;;;;;;5031992;28;20484;-89
2022/04/26 07:39:30;;;;;;;;;;;9.30;99.90;;;;;;5032246;28;20421;-86
2022/04/26 07:41:56;;;;;;;27.10;15.82;;;9.50;99.90;;;;;;5031877;28;19967;-88
2022/04/26 07:44:22;;;;;;;23.85;15.48;;;9.60;99.90;;;;;;5031811;28;20030;-87
2022/04/26 07:46:49;;;;;;;24.27;16.00;;;9.60;99.90;;;;;;5032549;28;20025;-86
2022/04/26 07:49:16;;;;;;;25.05;15.90;;;9.70;99.90;;;;;;5031719;28;20021;-86
2022/04/26 07:51:42;;;;;;;21.70;14.77;;;9.70;99.90;;;;;;5031752;28;20049;-87
2022/04/26 07:54:11;;;;;;;20.88;15.50;;;9.90;99.90;;;;;;5014142;28;20018;-87
2022/04/26 07:56:38;;;;;;;22.73;15.77;;;10.10;99.90;;;;;;5013988;28;20490;-88
2022/04/26 07:59:04;;;;;;;25.30;15.90;;;10.20;99.90;;;;;;5031582;28;20486;-87
2022/04/26 08:01:35;;;;;;;22.58;16.42;;;10.50;99.90;;;;;;5031540;28;20025;-88
2022/04/26 08:04:01;;;;;;;20.60;14.68;;;10.50;99.90;;;;;;5013585;28;20116;-87
2022/04/26 08:06:27;;;;;;;21.52;15.88;;;10.70;99.90;;;;;;5031523;28;20104;-86
2022/04/26 08:08:58;;;;;;;23.67;15.18;;;10.80;99.90;;;;;;5031379;28;20071;-87
2022/04/26 08:11:28;;;;;;;22.40;14.98;;;10.80;99.90;;;;;;5031137;28;20029;-87
2022/04/26 08:13:53;;;;;;;19.88;14.48;;;11.10;99.90;;;;;;5013507;28;20036;-87
2022/04/26 08:16:19;;;;;;;20.88;14.50;;;11.20;99.90;;;;;;5032077;28;20022;-87
2022/04/26 08:18:45;;;;;;;21.33;14.07;;;11.30;99.90;;;;;;5031074;28;20059;-87
2022/04/26 08:21:14;;;;;;;22.23;14.43;;;11.40;99.90;;;;;;5031218;28;20591;-87
2022/04/26 08:29:09;;;;;;;25.73;14.57;;;11.90;99.90;;;;;;5031163;28;20063;-87
2022/04/26 08:31:36;;;;;;;21.63;12.82;;;12.10;99.90;;;;;;5030987;28;20061;-88
2022/04/26 08:34:02;;;;;;;20.73;12.82;;;12.10;99.90;;;;;;5030913;28;20037;-88
2022/04/26 08:36:28;;;;;;;16.92;12.25;;;12.20;99.90;;;;;;5013105;28;20022;-88
2022/04/26 08:38:54;;;;;;;16.88;11.73;;;12.40;99.90;;;;;;5031071;28;20030;-87
2022/04/26 08:41:19;;;;;;;17.40;11.55;;;12.40;99.90;;;;;;5031508;28;20029;-88
2022/04/26 08:43:45;;;;;;;22.98;13.00;;;12.50;99.90;;;;;;5012948;28;20044;-89
2022/04/26 08:46:11;;;;;;;20.25;13.27;;;12.50;99.90;;;;;;5030648;28;20018;-86
2022/04/26 08:51:21;;;;;;;17.80;11.82;;;12.40;99.90;;;;;;5031631;28;20025;-88
2022/04/26 08:53:47;;;;;;;16.05;12.02;;;12.50;99.90;;;;;;5013087;28;20087;-87
2022/04/26 08:56:13;;;;;;;20.17;13.02;;;12.60;99.90;;;;;;5012791;28;20032;-89
2022/04/26 08:58:40;;;;;;;20.80;12.10;;;12.70;99.90;;;;;;5030411;28;20022;-87
2022/04/26 09:01:08;;;;;;;21.23;12.48;;;13.00;99.90;;;;;;5030515;28;20108;-88
2022/04/26 09:03:59;;;;;;;17.05;12.18;;;13.20;99.90;;;;;;5012661;28;20029;-88
2022/04/26 09:06:40;;;;;;;17.48;12.60;;;13.90;99.90;;;;;;5031198;28;20025;-87
2022/04/26 09:09:07;;;;;;;19.55;11.35;;;13.40;99.90;;;;;;5030292;28;20030;-87
2022/04/26 09:11:34;;;;;;;21.88;13.27;;;13.70;99.90;;;;;;5030258;28;20547;-88
2022/04/26 09:14:02;;;;;;;15.10;11.68;;;13.60;99.90;;;;;;5030179;28;20031;-88
2022/04/26 09:16:27;;;;;;;18.98;12.10;;;13.30;99.90;;;;;;5030201;28;20370;-89
2022/04/26 09:18:59;;;;;;;16.40;11.98;;;13.20;99.90;;;;;;5030864;28;20083;-89
2022/04/26 09:21:29;;;;;;;17.77;12.00;;;13.40;99.90;;;;;;5030935;28;20433;-88
2022/04/26 09:23:57;;;;;;;18.98;11.65;;;13.20;99.90;;;;;;5030228;28;20033;-87
2022/04/26 09:26:25;;;;;;;16.20;11.32;;;12.90;99.90;;;;;;5030930;28;20124;-88
2022/04/26 09:28:52;;;;;;;16.10;11.57;;;12.80;99.90;;;;;;5030330;28;20036;-87
2022/04/26 09:31:30;;;;;;;16.52;11.38;;;13.00;99.90;;;;;;5030265;28;20029;-90
2022/04/26 09:33:59;;;;;;;15.45;11.60;;;12.50;99.90;;;;;;5030392;28;20485;-86
2022/04/26 09:36:28;;;;;;;;;;;12.80;99.90;;;;;;5031101;28;20128;-90
2022/04/26 09:38:59;;;;;;;16.58;10.85;;;13.10;99.90;;;;;;5030601;28;20365;-89
2022/04/26 09:41:27;;;;;;;17.15;10.80;;;13.40;99.90;;;;;;5012710;28;20040;-87
2022/04/26 09:44:03;;;;;;;14.73;11.10;;;13.60;99.90;;;;;;5030433;28;20026;-88
2022/04/26 09:46:55;;;;;;;17.25;12.02;;;13.70;99.90;;;;;;5029571;28;20390;-88
2022/04/26 09:49:23;;;;;;;17.05;11.05;;;14.60;99.90;;;;;;5025789;28;20551;-87
2022/04/26 09:51:59;;;;;;;13.20;10.20;;;14.10;99.90;;;;;;5029420;28;20445;-88
2022/04/26 09:54:26;;;;;;;14.15;10.38;;;14.40;99.90;;;;;;5030596;28;20030;-88
2022/04/26 09:56:52;;;;;;;16.65;10.13;;;14.60;99.90;;;;;;5029437;28;20018;-89
2022/04/26 09:59:27;;;;;;;15.70;9.57;;;14.70;99.90;;;;;;5029456;28;20095;-88
2022/04/26 10:01:56;;;;;;;14.30;9.40;;;14.20;99.90;;;;;;5030331;28;20505;-89
2022/04/26 10:04:24;;;;;;;14.43;9.77;;;14.50;99.90;;;;;;5029172;28;20038;-89
2022/04/26 10:06:52;;;;;;;15.15;9.43;;;14.60;99.90;;;;;;5029423;28;20545;-87
2022/04/26 10:09:19;;;;;;;13.60;10.38;;;14.40;99.90;;;;;;5029317;28;20467;-89
2022/04/26 10:11:45;;;;;;;16.17;11.23;;;14.80;99.90;;;;;;5029200;28;20068;-87
2022/04/26 10:14:12;;;;;;;14.93;9.80;;;14.70;99.90;;;;;;5029258;28;20033;-89
2022/04/26 10:16:39;;;;;;;14.45;10.05;;;14.80;99.90;;;;;;5011476;28;20478;-88
2022/04/26 10:19:07;;;;;;;12.07;9.95;;;15.20;99.90;;;;;;5029010;28;20021;-88
2022/04/26 10:21:35;;;;;;;12.07;9.88;;;15.60;99.90;;;;;;5029053;28;20424;-87
2022/04/26 10:24:04;;;;;;;;;;;14.90;99.90;;;;;;5011773;28;20048;-87
2022/04/26 10:26:34;;;;;;;14.77;10.77;;;15.00;99.90;;;;;;5029201;28;19905;-87
2022/04/26 10:29:02;;;;;;;16.65;10.50;;;14.50;99.90;;;;;;5029274;28;20017;-86
2022/04/26 10:31:39;;;;;;;15.77;10.98;;;14.70;99.90;;;;;;5044024;28;20029;-84
2022/04/26 10:34:20;;;;;;;17.00;11.10;;;14.20;99.90;;;;;;5052622;28;20040;-86
2022/04/26 10:37:01;;;;;;;14.38;10.60;;;14.40;99.90;;;;;;5048425;28;20117;-87
2022/04/26 10:39:30;;;;;;;17.00;9.88;;;14.20;99.90;;;;;;5037766;28;20515;-87
2022/04/26 10:41:56;;;;;;;;;;;14.10;99.90;;;;;;5034444;28;20103;-87
2022/04/26 10:44:23;;;;;;;14.30;9.45;;;14.20;99.90;;;;;;5033453;28;19917;-88
2022/04/26 10:47:09;;;;;;;15.52;11.43;;;14.50;99.90;;;;;;5033165;28;20059;-87
2022/04/26 10:49:40;;;;;;;13.40;10.73;;;14.70;99.90;;;;;;5032922;28;20052;-87
2022/04/26 10:52:15;;;;;;;13.20;11.02;;;14.60;99.90;;;;;;5033158;28;20026;-88
2022/04/26 10:54:46;;;;;;;14.20;9.90;;;14.70;99.90;;;;;;5033046;28;20030;-88
2022/04/26 10:57:16;;;;;;;14.65;11.35;;;14.50;99.90;;;;;;5032898;28;20025;-89
2022/04/26 10:59:43;;;;;;;16.48;10.70;;;14.80;99.90;;;;;;5033205;28;20025;-87
2022/04/26 11:02:14;;;;;;;14.77;11.02;;;15.00;99.90;;;;;;5032683;28;20481;-86
2022/04/26 11:04:40;;;;;;;16.48;11.80;;;15.00;99.90;;;;;;5032500;28;20405;-87
2022/04/26 11:07:16;;;;;;;14.90;11.57;;;14.90;99.90;;;;;;5032581;28;20022;-87
2022/04/26 11:09:53;;;;;;;16.77;10.98;;;14.80;99.90;;;;;;5014606;28;20060;-87
2022/04/26 11:12:30;;;;;;;16.30;11.85;;;14.70;99.90;;;;;;5014607;28;20021;-88
2022/04/26 11:14:57;;;;;;;18.42;10.80;;;14.50;99.90;;;;;;5014827;28;20029;-87
2022/04/26 11:17:24;;;;;;;17.80;10.43;;;14.50;99.90;;;;;;5032110;28;20025;-87
2022/04/26 11:19:50;;;;;;;14.80;9.75;;;14.50;99.90;;;;;;5014714;28;20033;-88
2022/04/26 11:22:17;;;;;;;15.77;11.05;;;14.80;99.90;;;;;;5032209;28;20079;-89
2022/04/26 11:30:40;;;;;;;15.63;9.77;;;15.30;99.90;;;;;;5032364;28;20402;-87
2022/04/26 11:33:11;;;;;;;15.40;9.77;;;15.00;99.90;;;;;;5032017;28;20049;-87
2022/04/26 11:35:38;;;;;;;15.48;10.80;;;14.80;99.90;;;;;;5014195;28;20021;-86
2022/04/26 11:38:05;;;;;;;24.90;10.73;;;15.00;99.90;;;;;;5031950;28;20079;-86
2022/04/26 11:40:41;;;;;;;15.10;11.05;;;15.10;99.90;;;;;;5032800;28;20025;-87
2022/04/26 11:43:15;;;;;;;14.93;10.30;;;15.10;99.90;;;;;;5013911;28;20022;-88
2022/04/26 11:45:44;;;;;;;14.82;10.75;;;15.20;99.90;;;;;;5031459;28;20025;-87
2022/04/26 11:48:17;;;;;;;12.65;8.95;;;15.40;99.90;;;;;;5031762;28;20400;-88
2022/04/26 11:50:46;;;;;;;11.27;8.88;;;15.40;99.90;;;;;;5031721;28;20052;-87
2022/04/26 11:53:22;;;;;;;11.40;8.75;;;15.40;99.90;;;;;;5031933;28;20022;-87
2022/04/26 11:56:17;;;;;;;15.65;10.27;;;15.20;99.90;;;;;;5031738;28;20025;-87
2022/04/26 11:58:43;;;;;;;14.93;10.48;;;15.50;99.90;;;;;;5012525;28;20038;-87
2022/04/26 12:01:11;;;;;;;16.13;9.57;;;15.10;99.90;;;;;;5031514;28;20362;-88
2022/04/26 12:03:52;;;;;;;13.07;9.63;;;15.00;99.90;;;;;;5031435;28;20464;-88
2022/04/26 12:06:40;;;;;;;14.15;10.02;;;15.00;99.90;;;;;;5028316;28;20022;-87
2022/04/26 12:09:08;;;;;;;14.20;9.38;;;14.90;99.90;;;;;;5028091;28;20037;-86
2022/04/26 12:11:38;;;;;;;10.65;8.40;;;15.00;99.90;;;;;;5013935;28;20116;-87
2022/04/26 12:14:08;;;;;;;11.00;8.25;;;15.30;99.90;;;;;;5031796;28;20025;-89
2022/04/26 12:16:51;;;;;;;10.25;8.07;;;15.60;99.90;;;;;;5031450;28;20053;-88
2022/04/26 12:19:17;;;;;;;13.05;8.35;;;15.90;99.90;;;;;;5029081;28;20398;-88
2022/04/26 12:21:49;;;;;;;10.60;7.60;;;15.90;99.30;;;;;;5030305;28;20025;-88
2022/04/26 12:24:15;;;;;;;10.10;7.32;;;15.90;96.20;;;;;;5030054;28;20038;-88
2022/04/26 12:27:00;;;;;;;11.80;7.93;;;15.80;95.40;;;;;;5012609;28;20025;-88
2022/04/26 12:29:38;;;;;;;10.80;7.43;;;15.90;99.90;;;;;;5030276;28;20035;-87
2022/04/26 12:32:06;;;;;;;10.52;7.75;;;15.90;94.60;;;;;;5031417;28;20021;-88
2022/04/26 12:34:32;;;;;;;12.77;7.95;;;15.90;98.10;;;;;;5031088;28;20057;-86
2022/04/26 12:37:06;;;;;;;11.52;8.05;;;16.00;97.60;;;;;;5029960;28;20445;-87
2022/04/26 12:39:38;;;;;;;13.02;7.78;;;16.20;99.90;;;;;;5031010;28;20497;-88
2022/04/26 12:42:05;;;;;;;13.00;8.15;;;16.40;99.90;;;;;;5030793;28;20505;-86
2022/04/26 12:44:31;;;;;;;12.63;7.57;;;16.60;99.20;;;;;;5030812;28;20029;-87
2022/04/26 12:52:46;;;;;;;14.40;8.02;;;16.90;99.00;;;;;;5015096;28;20033;-87
2022/04/26 12:55:13;;;;;;;10.88;7.88;;;16.70;96.70;;;;;;5030058;28;20025;-87
2022/04/26 12:57:49;;;;;;;12.32;8.25;;;16.10;94.30;;;;;;5011385;28;20035;-88
2022/04/26 13:00:17;;;;;;;10.75;8.32;;;15.70;97.90;;;;;;5029665;28;20492;-88
2022/04/26 13:02:42;;;;;;;9.15;7.53;;;16.00;99.90;;;;;;5030103;28;20018;-88
2022/04/26 13:05:08;;;;;;;11.25;8.02;;;16.40;97.60;;;;;;5011892;28;20401;-87
2022/04/26 13:07:34;;;;;;;10.82;8.32;;;16.60;95.50;;;;;;5028753;28;20017;-86
2022/04/26 13:10:00;;;;;;;11.88;8.10;;;16.70;97.60;;;;;;5029860;28;20030;-87
2022/04/26 13:12:26;;;;;;;10.27;8.15;;;15.90;96.30;;;;;;5029500;28;20087;-88
2022/04/26 13:14:51;;;;;;;11.23;8.07;;;16.10;95.30;;;;;;5011774;28;20519;-86
2022/04/26 13:17:20;;;;;;;9.32;7.32;;;16.10;98.50;;;;;;5028253;28;20108;-88
2022/04/26 13:19:47;;;;;;;8.48;7.07;;;16.00;96.60;;;;;;5029257;28;20025;-88
2022/04/26 13:22:13;;;;;;;8.65;6.95;;;15.90;97.50;;;;;;5028871;28;20033;-87
2022/04/26 13:24:38;;;;;;;10.65;6.90;;;15.80;96.30;;;;;;5029262;28;20026;-86
2022/04/26 13:27:06;;;;;;;10.25;7.57;;;15.90;95.50;;;;;;5011044;28;20032;-87
2022/04/26 13:29:32;;;;;;;10.38;6.93;;;16.00;93.70;;;;;;5030075;28;20390;-87
2022/04/26 13:31:58;;;;;;;9.95;7.15;;;16.00;90.80;;;;;;5029090;28;20221;-87
2022/04/26 13:34:24;;;;;;;9.85;7.28;;;16.20;90.90;;;;;;5029489;28;20025;-88
2022/04/26 13:36:51;;;;;;;9.27;6.72;;;16.10;91.30;;;;;;5028999;28;20445;-88
2022/04/26 13:39:17;;;;;;;7.45;6.10;;;16.30;93.10;;;;;;5029121;28;20045;-88
2022/04/26 13:41:42;;;;;;;9.05;6.22;;;16.50;87.30;;;;;;5028940;28;20064;-87
2022/04/26 13:44:08;;;;;;;9.00;6.90;;;16.50;93.60;;;;;;5029055;28;20032;-87
2022/04/26 13:46:33;;;;;;;10.98;6.85;;;16.50;92.00;;;;;;5012500;28;20060;-86
2022/04/26 13:48:59;;;;;;;9.07;6.78;;;16.50;93.00;;;;;;5028871;28;20029;-88
2022/04/26 13:51:29;;;;;;;8.57;6.28;;;16.60;96.30;;;;;;5028402;28;20029;-88
2022/04/26 13:53:55;;;;;;;8.18;6.07;;;16.70;96.20;;;;;;5028498;28;20086;-86
2022/04/26 13:56:20;;;;;;;10.55;6.18;;;16.70;93.20;;;;;;5028607;28;20025;-89
2022/04/26 13:58:46;;;;;;;8.45;6.10;;;16.40;90.90;;;;;;5010974;28;20060;-87
2022/04/26 14:01:12;;;;;;;8.27;6.13;;;16.40;90.90;;;;;;5028387;28;20075;-85
2022/04/26 14:03:38;;;;;;;7.97;5.65;;;16.40;89.10;;;;;;5028142;28;20028;-88
2022/04/26 14:06:03;;;;;;;8.73;5.60;;;16.20;85.30;;;;;;5011322;28;20021;-87
2022/04/26 14:08:31;;;;;;;9.77;6.03;;;16.00;88.80;;;;;;5028506;28;20493;-86
2022/04/26 14:10:57;;;;;;;9.32;5.68;;;16.20;92.10;;;;;;5027732;28;20114;-85
2022/04/26 14:13:23;;;;;;;8.55;5.80;;;16.00;91.80;;;;;;5028179;28;20021;-87
2022/04/26 14:24:04;;;;;;;11.02;6.72;;;16.60;94.30;;;;;;5029437;28;20041;-85
2022/04/26 14:26:30;;;;;;;6.20;4.93;;;16.50;82.40;;;;;;5028634;28;20021;-87
2022/04/26 14:28:56;;;;;;;6.05;5.22;;;16.70;87.90;;;;;;5028281;28;20473;-86
2022/04/26 14:31:21;;;;;;;10.50;6.30;;;17.00;91.70;;;;;;5027329;28;20632;-88
2022/04/26 14:33:47;;;;;;;9.25;5.70;;;16.80;84.80;;;;;;5028360;28;20509;-87
2022/04/26 14:36:12;;;;;;;7.57;5.65;;;16.90;91.00;;;;;;5028293;28;20112;-87
2022/04/26 14:38:38;;;;;;;8.52;6.05;;;17.20;90.30;;;;;;5028092;28;20021;-86
2022/04/26 14:41:04;;;;;;;7.32;5.72;;;17.10;87.90;;;;;;5029143;28;20115;-86
2022/04/26 14:43:29;;;;;;;7.93;5.70;;;17.10;89.10;;;;;;5008876;28;20022;-86
2022/04/26 14:45:55;;;;;;;11.90;7.15;;;17.00;89.90;;;;;;5028347;28;20260;-88
2022/04/26 14:48:23;;;;;;;7.65;6.47;;;16.90;81.90;;;;;;5028170;28;20049;-88
2022/04/26 14:50:49;;;;;;;8.55;6.38;;;16.90;83.10;;;;;;5028042;28;20108;-87
2022/04/26 14:53:15;;;;;;;8.93;6.30;;;17.00;89.30;;;;;;5010921;28;20057;-89
2022/04/26 14:55:41;;;;;;;9.10;6.63;;;17.20;90.60;;;;;;5026080;28;20049;-87
2022/04/26 14:58:09;;;;;;;12.23;5.85;;;17.30;82.00;;;;;;5010840;28;20029;-85
2022/04/26 15:00:36;;;;;;;9.85;6.78;;;17.50;89.50;;;;;;5029966;28;20496;-87
2022/04/26 15:03:03;;;;;;;12.68;6.80;;;17.30;78.50;;;;;;5029599;28;20033;-86
2022/04/26 15:05:29;;;;;;;10.55;7.13;;;17.50;85.30;;;;;;5028516;28;20037;-87
2022/04/26 15:10:38;;;;;;;10.98;6.65;;;17.80;82.40;;;;;;5028816;28;20040;-87
2022/04/26 15:18:34;;;;;;;10.73;6.45;;;17.80;73.50;;;;;;5029341;28;20048;-87
2022/04/26 15:21:01;;;;;;;11.10;6.38;;;17.80;79.20;;;;;;5029653;28;20559;-85
2022/04/26 15:23:26;;;;;;;8.23;6.32;;;17.90;79.40;;;;;;5031925;28;20061;-87
2022/04/26 15:25:53;;;;;;;12.02;6.30;;;18.00;81.90;;;;;;5031991;28;20117;-87
2022/04/26 15:28:19;;;;;;;9.48;6.65;;;18.20;86.70;;;;;;5032168;28;20058;-86
2022/04/26 15:30:45;;;;;;;10.13;6.70;;;18.20;80.50;;;;;;5032082;28;20026;-86
2022/04/26 15:33:12;;;;;;;9.10;5.63;;;18.30;83.20;;;;;;5032028;28;20432;-86
2022/04/26 15:35:38;;;;;;;9.02;6.03;;;18.60;85.50;;;;;;5032571;28;20037;-88
2022/04/26 15:38:07;;;;;;;10.35;6.70;;;18.80;80.40;;;;;;5015029;28;20029;-86
2022/04/26 15:40:34;;;;;;;9.85;6.65;;;18.70;73.80;;;;;;5032279;28;20034;-86
2022/04/26 15:43:00;;;;;;;9.57;6.65;;;18.30;73.30;;;;;;5031870;28;20029;-87
2022/04/26 15:45:26;;;;;;;12.95;6.97;;;18.20;74.10;;;;;;5014042;28;20056;-86
2022/04/26 15:47:51;;;;;;;10.20;6.65;;;18.10;76.10;;;;;;5031808;28;20549;-89
2022/04/26 15:50:18;;;;;;;12.60;7.13;;;18.40;76.00;;;;;;5031820;28;20411;-88
2022/04/26 15:52:44;;;;;;;10.15;5.97;;;18.50;72.30;;;;;;5031590;28;20385;-88
2022/04/26 15:55:09;;;;;;;10.90;6.38;;;18.70;78.50;;;;;;5031667;28;20026;-88
2022/04/26 15:57:36;;;;;;;8.00;6.70;;;18.80;76.70;;;;;;5032508;28;20029;-88
2022/04/26 16:00:03;;;;;;;9.88;6.25;;;18.90;77.10;;;;;;5031747;28;20017;-88
2022/04/26 16:02:31;;;;;;;10.13;6.90;;;18.60;72.30;;;;;;5014046;28;20257;-89
2022/04/26 16:04:57;;;;;;;11.23;6.40;;;18.60;68.30;;;;;;5031613;28;20120;-87
2022/04/26 16:07:23;;;;;;;9.95;6.28;;;18.10;71.10;;;;;;5031741;28;20097;-84
2022/04/26 16:20:45;;;;;;;9.32;6.10;;;18.40;73.10;;;;;;5031377;28;20033;-88
2022/04/26 16:23:11;;;;;;;7.80;5.65;;;18.20;73.60;;;;;;5013561;28;20025;-88
2022/04/26 16:25:36;;;;;;;8.70;5.85;;;18.20;73.80;;;;;;5031074;28;20166;-88
2022/04/26 16:28:03;;;;;;;10.88;5.82;;;18.50;66.90;;;;;;5030497;28;20045;-89
2022/04/26 16:30:30;;;;;;;9.48;5.70;;;19.00;65.10;;;;;;5030579;28;20060;-88
2022/04/26 16:33:05;;;;;;;9.82;5.90;;;19.60;77.30;;;;;;5029956;28;20027;-89
2022/04/26 16:35:34;;;;;;;7.30;5.95;;;20.60;73.30;;;;;;5031337;28;20036;-89
2022/04/26 16:38:01;;;;;;;7.18;5.65;;;21.50;62.10;;;;;;5012839;28;20116;-87
2022/04/26 16:40:28;;;;;;;7.43;5.50;;;22.20;62.30;;;;;;5031094;28;20069;-91
2022/04/26 16:42:54;;;;;;;14.02;5.88;;;22.80;62.90;;;;;;5031046;28;20022;-89
2022/04/26 16:45:20;;;;;;;7.25;5.70;;;22.40;53.40;;;;;;5013179;28;20044;-89
2022/04/26 16:47:45;;;;;;;6.60;5.80;;;22.50;54.80;;;;;;5030754;28;20017;-88
2022/04/26 16:50:12;;;;;;;10.50;5.70;;;21.90;54.10;;;;;;5031730;28;20500;-88
2022/04/26 16:52:39;;;;;;;7.75;5.10;;;21.00;47.80;;;;;;5031549;28;20099;-88
2022/04/26 16:55:05;;;;;;;6.53;5.65;;;21.40;62.50;;;;;;5030614;28;20029;-89
2022/04/26 16:57:31;;;;;;;8.75;6.13;;;21.70;54.50;;;;;;5030724;28;20040;-89
2022/04/26 16:59:58;;;;;;;12.02;5.50;;;22.30;50.60;;;;;;5029736;28;20421;-87
2022/04/26 17:02:25;;;;;;;8.75;5.72;;;22.80;50.40;;;;;;5027851;28;20021;-88
2022/04/26 17:04:51;;;;;;;9.45;6.40;;;23.20;49.50;;;;;;5030994;28;20041;-89
2022/04/26 17:07:17;;;;;;;8.88;5.38;;;23.40;45.70;;;;;;5028836;28;20047;-88
2022/04/26 17:09:43;;;;;;;15.95;5.30;;;23.50;46.10;;;;;;5029499;28;20469;-88